Woodville, Wisconsin
Current Conditions -  °F | °C
As of 2:55 AM on Thursday 23 Oct 2014 (Local Time) from KRNH Reporting Station
Moderate Rain Moderate Rain  
Wind Chill: 51°   Ceiling: 2400
Heat Index: 51°   Visibility: 10mi
Dew Point: 41°   Wind: 12mph
Humidity: 69%   Direction: 170°S
Pressure: 30.02"   Gusts: 16mph
Location:  44.95°N, 92.29°W
Report Text: KRNH 230755Z AUTO 17010G14KT 10SM RA BKN024 BKN031 OVC100 11/05 A3002 RMK AO2 T01050051
Loading
Personal Weather Stations






























Interactive Weather Map
Tropical Storm Tracking
New forecast layout! Learn more

10-Day Weather Forecast

Advertisements
Track Severe Weather on mobile